aviador You're here:

KBWG Decoded Metar

BOWLING GREE in KY, USA
Report Time2018-05-27 00:53:00
UTC Time2018-05-27 01:20:30
Flight Rules vfr VFR
Wind190° at 06 kt
W.Decomp.*RWY 21: 5.7 kt HW 1.9 kt LCW
RWY 12: 1.9 kt HW 5.7 kt RCW
W.Rank190° ranks 1
Current wind is below 190° avg. (8.3)
Visibility9999 m
Phenomena:N/A
Clouds:N/A
Expected CloudBase > 2,000 ft AGL from Temp-Dew spread
CeilingNone
Temp26°C (ISA +12)
Dew Point21°C (74% RH)
QNH1011 hPa
Density Alt2,346 ft
Elevation551 ft
Report Wrong Elevation
Raw Report
METAR KBWG 270053Z AUTO 19006KT 10SM CLR 26/21 A2986 RMK AO2 SLP105
T02560211=

Extra information for KBWG:More info

Metar Taf Metar & Taf Last 4 Metars F.Rules Stats Wind Profile Meteogram Temp Stats Airport Information Weather charts Add Link Nearby VenuesMetar ALERT Operation Metar Decoded Social comments

AIRNAV info for KBWG